Time;durP1;ratioP1;P1;durP2;ratioP2;P2;SDS_P1;SDS_P2;PMS_P1;PMS_P2;Temp;Humidity;BMP_temperature;BMP_pressure;BME280_temperature;BME280_humidity;BME280_pressure;Samples;Min_cycle;Max_cycle;Signal;HPM_P1;HPM_P2
2022/06/20 00:00:24;;;;;;;10.38;3.38;;;15.30;99.90;;;;;;5076164;28;20020;-62
2022/06/20 00:02:53;;;;;;;6.30;1.90;;;15.30;99.90;;;;;;5081561;28;20024;-63
2022/06/20 00:05:24;;;;;;;7.15;2.38;;;15.00;99.90;;;;;;5075819;28;20051;-63
2022/06/20 00:07:50;;;;;;;5.65;2.33;;;15.00;99.90;;;;;;5081009;28;20478;-64
2022/06/20 00:10:19;;;;;;;7.93;2.20;;;15.10;99.90;;;;;;5070777;28;20028;-63
2022/06/20 00:12:46;;;;;;;6.80;2.10;;;15.50;99.90;;;;;;5080422;28;20061;-62
2022/06/20 00:15:26;;;;;;;6.35;2.03;;;15.60;99.90;;;;;;5076755;28;20453;-63
2022/06/20 00:17:54;;;;;;;5.85;1.88;;;15.80;99.90;;;;;;5082475;28;20085;-62
2022/06/20 00:20:20;;;;;;;5.20;1.98;;;15.40;99.90;;;;;;5083128;28;20020;-64
2022/06/20 00:22:46;;;;;;;5.25;1.98;;;15.50;99.90;;;;;;5069019;28;20099;-62
2022/06/20 00:25:12;;;;;;;5.95;2.30;;;15.40;99.90;;;;;;5082287;28;20111;-63
2022/06/20 00:27:38;;;;;;;5.68;2.20;;;15.50;99.90;;;;;;5085300;28;20423;-63
2022/06/20 00:30:05;;;;;;;6.25;2.28;;;15.60;99.90;;;;;;5073893;28;20035;-64
2022/06/20 00:32:31;;;;;;;5.80;2.28;;;15.60;99.90;;;;;;5077200;28;20510;-62
2022/06/20 00:34:57;;;;;;;8.43;2.47;;;15.70;99.90;;;;;;5077685;28;20025;-63
2022/06/20 00:37:23;;;;;;;7.82;2.58;;;15.40;99.90;;;;;;5078629;28;20058;-62
2022/06/20 00:39:50;;;;;;;5.38;2.40;;;15.40;99.90;;;;;;5086848;28;20047;-64
2022/06/20 00:42:16;;;;;;;5.32;2.13;;;15.50;99.90;;;;;;5082514;28;20028;-62
2022/06/20 00:44:46;;;;;;;6.47;2.28;;;15.70;99.90;;;;;;5077751;28;20024;-63
2022/06/20 00:47:16;;;;;;;4.75;2.40;;;15.60;99.90;;;;;;5084244;27;20024;-62
2022/06/20 00:50:02;;;;;;;6.43;2.42;;;15.40;99.90;;;;;;5079494;28;20020;-63
2022/06/20 00:52:44;;;;;;;6.07;2.20;;;15.00;99.90;;;;;;5086895;28;20085;-63
2022/06/20 00:55:26;;;;;;;5.05;2.10;;;15.50;99.90;;;;;;5094530;28;20016;-62
2022/06/20 00:58:04;;;;;;;5.65;2.25;;;15.50;99.90;;;;;;5078974;28;20040;-62
2022/06/20 01:00:35;;;;;;;6.15;2.42;;;15.10;99.90;;;;;;5082207;28;20020;-64
2022/06/20 01:03:14;;;;;;;6.30;2.40;;;15.00;99.90;;;;;;5077094;28;20040;-62
2022/06/20 01:06:08;;;;;;;7.32;2.78;;;15.20;99.90;;;;;;5094596;28;20021;-63
2022/06/20 01:08:49;;;;;;;7.00;2.65;;;15.40;99.90;;;;;;5080169;28;20107;-62
2022/06/20 01:11:19;;;;;;;10.35;2.97;;;15.90;99.90;;;;;;5079940;28;20520;-63
2022/06/20 01:13:45;;;;;;;7.45;2.90;;;16.10;99.90;;;;;;5089383;28;20024;-63
2022/06/20 01:16:24;;;;;;;8.27;2.70;;;16.00;99.90;;;;;;5082460;28;20034;-64
2022/06/20 01:18:50;;;;;;;7.95;2.85;;;15.80;99.90;;;;;;5090956;28;20074;-63
2022/06/20 01:21:27;;;;;;;8.35;2.80;;;15.70;99.90;;;;;;5075886;28;20424;-62
2022/06/20 01:23:52;;;;;;;8.68;2.90;;;15.10;99.90;;;;;;5093229;28;20660;-63
2022/06/20 01:26:45;;;;;;;7.85;3.20;;;15.00;99.90;;;;;;5082711;28;20023;-65
2022/06/20 01:29:12;;;;;;;13.65;3.28;;;;;;;;;;5088519;28;20032;-64
2022/06/20 01:31:43;;;;;;;12.43;3.55;;;14.70;99.90;;;;;;5086230;28;20376;-64
2022/06/20 01:34:09;;;;;;;11.73;3.22;;;14.90;99.90;;;;;;5086269;28;20785;-64
2022/06/20 01:39:24;;;;;;;8.95;3.60;;;15.10;99.90;;;;;;5081896;28;20027;-63
2022/06/20 01:44:39;;;;;;;8.13;2.78;;;15.20;99.90;;;;;;5088171;28;20170;-63
2022/06/20 01:47:05;;;;;;;7.10;2.75;;;15.10;99.90;;;;;;5086888;28;20751;-62
2022/06/20 01:49:32;;;;;;;7.32;2.60;;;15.20;99.90;;;;;;5094085;28;20109;-65
2022/06/20 01:52:19;;;;;;;9.27;3.25;;;14.60;99.90;;;;;;5086960;28;20024;-65
2022/06/20 01:54:53;;;;;;;8.82;3.30;;;14.30;99.90;;;;;;5079624;28;20644;-65
2022/06/20 01:57:20;;;;;;;8.77;3.38;;;14.40;99.90;;;;;;5077723;28;20024;-65
2022/06/20 01:59:59;;;;;;;8.27;2.75;;;14.50;99.90;;;;;;5085411;28;20031;-65
2022/06/20 02:02:28;;;;;;;8.48;3.28;;;14.70;99.90;;;;;;5081199;28;20023;-64
2022/06/20 02:04:53;;;;;;;7.82;3.03;;;14.30;99.90;;;;;;5077752;28;20032;-64
2022/06/20 02:07:19;;;;;;;9.88;3.10;;;14.10;99.90;;;;;;5085337;28;20016;-64
2022/06/20 02:09:45;;;;;;;10.88;3.35;;;14.60;99.90;;;;;;5082772;28;20527;-64
2022/06/20 02:12:12;;;;;;;6.10;2.90;;;12.20;99.90;;;;;;5086869;28;20020;-63
2022/06/20 02:14:50;;;;;;;11.52;3.40;;;14.10;99.90;;;;;;5082698;28;20063;-64
2022/06/20 02:17:31;;;;;;;8.65;3.45;;;13.90;99.90;;;;;;5075701;28;20049;-63
2022/06/20 02:20:02;;;;;;;9.50;3.45;;;14.00;99.90;;;;;;5079831;28;20538;-63
2022/06/20 02:22:30;;;;;;;12.20;3.60;;;14.00;99.90;;;;;;5084937;28;20426;-63
2022/06/20 02:25:01;;;;;;;6.47;3.30;;;14.00;99.90;;;;;;5084229;28;20025;-64
2022/06/20 02:27:39;;;;;;;12.25;3.95;;;14.00;99.90;;;;;;5087261;28;20063;-63
2022/06/20 02:30:08;;;;;;;13.75;3.67;;;13.80;99.90;;;;;;5080776;28;20032;-62
2022/06/20 02:32:43;;;;;;;9.73;3.38;;;13.70;99.90;;;;;;5075413;28;20057;-63
2022/06/20 02:35:14;;;;;;;8.57;3.17;;;13.60;99.90;;;;;;5085247;28;20329;-63
2022/06/20 02:37:40;;;;;;;12.95;3.67;;;13.50;99.90;;;;;;5081066;28;20650;-62
2022/06/20 02:40:10;;;;;;;9.30;3.50;;;13.60;99.90;;;;;;5083967;28;20047;-63
2022/06/20 02:42:43;;;;;;;9.07;3.67;;;13.70;99.90;;;;;;5090453;28;20055;-63
2022/06/20 02:45:11;;;;;;;;;;;13.60;99.90;;;;;;5083427;28;20027;-63
2022/06/20 02:47:46;;;;;;;8.75;3.55;;;13.60;99.90;;;;;;5093742;28;19908;-62
2022/06/20 02:50:14;;;;;;;13.85;4.40;;;13.50;99.90;;;;;;5073395;28;20036;-62
2022/06/20 02:52:57;;;;;;;9.00;3.50;;;13.60;99.90;;;;;;5077147;28;20032;-63
2022/06/20 02:55:24;;;;;;;12.32;3.90;;;13.60;99.90;;;;;;5073760;28;20556;-63
2022/06/20 02:57:55;;;;;;;9.35;3.70;;;13.70;99.90;;;;;;5076977;28;20387;-63
2022/06/20 03:00:27;;;;;;;10.43;4.20;;;13.70;99.90;;;;;;5075838;28;20494;-63
2022/06/20 03:02:59;;;;;;;10.55;4.22;;;13.70;99.90;;;;;;5080585;28;20032;-63
2022/06/20 03:05:25;;;;;;;10.98;3.85;;;13.70;99.90;;;;;;5087698;28;20035;-64
2022/06/20 03:07:52;;;;;;;10.13;3.58;;;13.60;99.90;;;;;;5077085;28;20425;-63
2022/06/20 03:10:32;;;;;;;7.15;2.80;;;13.60;99.90;;;;;;5088861;28;20037;-63
2022/06/20 03:12:57;;;;;;;11.23;2.75;;;13.70;99.90;;;;;;5081962;28;20166;-63
2022/06/20 03:15:24;;;;;;;8.30;3.05;;;13.60;99.90;;;;;;5075009;28;20119;-62
2022/06/20 03:17:52;;;;;;;14.75;3.38;;;13.60;99.90;;;;;;5073611;28;20031;-62
2022/06/20 03:20:20;;;;;;;8.23;3.30;;;13.70;99.90;;;;;;5077660;28;20035;-62
2022/06/20 03:23:06;;;;;;;7.63;2.55;;;13.50;99.90;;;;;;5073605;28;20264;-62
2022/06/20 03:25:32;;;;;;;13.38;2.97;;;13.50;99.90;;;;;;5072813;28;20581;-62
2022/06/20 03:27:58;;;;;;;6.25;2.30;;;13.50;99.90;;;;;;5071904;28;20488;-62
2022/06/20 03:30:32;;;;;;;8.88;2.10;;;13.60;99.90;;;;;;5087708;28;20027;-62
2022/06/20 03:33:01;;;;;;;8.90;2.47;;;13.60;99.90;;;;;;5079916;28;20032;-62
2022/06/20 03:35:30;;;;;;;10.15;2.20;;;13.70;99.90;;;;;;5079812;28;20066;-64
2022/06/20 03:37:57;;;;;;;9.25;2.60;;;13.60;99.90;;;;;;5080827;28;20059;-62
2022/06/20 03:40:23;;;;;;;13.07;2.60;;;13.40;99.90;;;;;;5078907;28;20028;-64
2022/06/20 03:42:49;;;;;;;9.45;2.35;;;13.60;99.90;;;;;;5078276;28;20037;-61
2022/06/20 03:45:16;;;;;;;10.95;2.55;;;13.50;99.90;;;;;;5078685;28;20035;-61
2022/06/20 03:47:44;;;;;;;10.18;2.50;;;13.60;99.90;;;;;;5078871;28;20032;-63
2022/06/20 03:50:18;;;;;;;11.30;2.78;;;13.70;99.90;;;;;;5073944;28;20024;-63
2022/06/20 03:52:52;;;;;;;11.52;2.80;;;13.70;99.90;;;;;;5076458;28;20071;-63
2022/06/20 03:55:28;;;;;;;8.35;2.78;;;13.60;99.90;;;;;;5082036;28;20054;-61
2022/06/20 03:58:22;;;;;;;12.55;3.03;;;13.60;99.90;;;;;;5081537;28;20024;-63
2022/06/20 04:01:11;;;;;;;10.07;2.70;;;13.40;99.90;;;;;;5081171;28;20036;-63
2022/06/20 04:04:06;;;;;;;12.68;2.88;;;13.40;99.90;;;;;;5082774;28;20038;-62
2022/06/20 04:06:44;;;;;;;10.20;2.65;;;13.50;99.90;;;;;;5080852;28;20032;-63
2022/06/20 04:12:06;;;;;;;10.80;2.40;;;13.50;99.90;;;;;;5089009;28;20100;-64
2022/06/20 04:14:49;;;;;;;11.50;2.97;;;13.50;99.90;;;;;;5070688;28;20122;-64
2022/06/20 04:20:40;;;;;;;9.82;2.38;;;13.70;99.90;;;;;;5063625;28;20298;-63
2022/06/20 04:23:15;;;;;;;9.52;2.60;;;13.60;99.90;;;;;;5081686;28;20119;-63
2022/06/20 04:25:50;;;;;;;11.05;3.15;;;13.70;99.90;;;;;;5079008;28;20024;-62
2022/06/20 04:28:24;;;;;;;62.40;37.97;;;14.80;99.90;;;;;;5077080;28;20024;-61
2022/06/20 04:30:59;;;;;;;17.65;5.55;;;14.30;99.90;;;;;;5076659;28;20036;-63
2022/06/20 04:33:36;;;;;;;13.55;3.67;;;14.50;99.90;;;;;;5079339;28;20029;-63
2022/06/20 04:36:15;;;;;;;12.40;3.10;;;14.50;99.90;;;;;;5072911;28;20028;-64
2022/06/20 04:38:49;;;;;;;10.23;2.67;;;14.30;99.90;;;;;;5074870;28;20028;-64
2022/06/20 04:41:34;;;;;;;7.57;2.50;;;14.20;99.90;;;;;;5075037;28;20503;-65
2022/06/20 04:44:25;;;;;;;9.05;2.80;;;14.60;99.90;;;;;;5078786;28;20039;-65
2022/06/20 04:47:34;;;;;;;12.18;2.85;;;14.70;99.90;;;;;;5084721;28;20040;-65
2022/06/20 04:49:59;;;;;;;12.80;3.03;;;14.90;99.90;;;;;;5073861;28;20276;-64
2022/06/20 04:52:29;;;;;;;7.72;3.15;;;14.80;99.90;;;;;;5078501;28;20099;-64
2022/06/20 04:54:56;;;;;;;8.38;2.88;;;14.70;99.90;;;;;;5072364;28;20043;-64
2022/06/20 04:57:27;;;;;;;11.05;3.05;;;14.70;99.90;;;;;;5086499;28;20047;-63
2022/06/20 04:59:56;;;;;;;8.82;3.15;;;14.60;99.90;;;;;;5076767;28;20419;-64
2022/06/20 05:02:23;;;;;;;10.27;3.20;;;14.70;99.90;;;;;;5079304;28;20069;-61
2022/06/20 05:04:50;;;;;;;13.63;3.50;;;14.70;99.90;;;;;;5081558;28;20072;-63
2022/06/20 05:07:28;;;;;;;10.13;2.70;;;14.80;99.90;;;;;;5075537;28;20468;-63
2022/06/20 05:10:00;;;;;;;12.70;3.53;;;14.70;99.90;;;;;;5074855;28;20040;-63
2022/06/20 05:12:41;;;;;;;13.52;3.10;;;14.40;99.90;;;;;;5077079;28;20039;-63
2022/06/20 05:15:15;;;;;;;14.15;3.67;;;14.00;99.90;;;;;;5071300;28;20074;-64
2022/06/20 05:17:45;;;;;;;8.02;3.10;;;14.00;99.90;;;;;;5076592;28;20461;-62
2022/06/20 05:20:35;;;;;;;15.85;3.50;;;13.80;99.90;;;;;;5066270;28;20757;-62
2022/06/20 05:23:12;;;;;;;13.40;3.78;;;13.90;99.90;;;;;;5071371;28;20104;-63
2022/06/20 05:25:38;;;;;;;12.43;3.13;;;;;;;;;;5076412;28;20505;-63
2022/06/20 05:28:10;;;;;;;13.10;3.50;;;13.70;99.90;;;;;;5078204;28;20514;-63
2022/06/20 05:30:37;;;;;;;14.35;3.63;;;13.60;99.90;;;;;;5077074;28;20056;-63
2022/06/20 05:33:17;;;;;;;8.57;3.20;;;13.70;99.90;;;;;;5075860;28;20491;-62
2022/06/20 05:36:00;;;;;;;13.65;3.72;;;13.60;99.90;;;;;;5075028;28;20024;-63
2022/06/20 05:38:32;;;;;;;12.43;3.70;;;13.80;99.90;;;;;;5076633;28;20024;-63
2022/06/20 05:40:59;;;;;;;11.02;3.20;;;14.00;99.90;;;;;;5078491;28;20115;-64
2022/06/20 05:43:28;;;;;;;12.32;3.42;;;13.90;99.90;;;;;;5083086;28;20102;-62
2022/06/20 05:46:00;;;;;;;13.23;3.60;;;13.80;99.90;;;;;;5077646;28;20082;-63
2022/06/20 05:48:35;;;;;;;14.85;3.90;;;14.00;99.90;;;;;;5072282;28;20032;-63
2022/06/20 05:51:03;;;;;;;12.70;3.58;;;14.30;99.90;;;;;;5073763;28;20028;-63
2022/06/20 05:53:43;;;;;;;16.20;3.75;;;14.20;99.90;;;;;;5081166;28;20020;-63
2022/06/20 05:56:26;;;;;;;11.27;3.42;;;13.90;99.90;;;;;;5080190;28;20052;-63
2022/06/20 05:58:54;;;;;;;14.30;3.92;;;14.00;99.90;;;;;;5072888;28;20495;-64
2022/06/20 06:01:25;;;;;;;12.00;3.97;;;14.10;99.90;;;;;;5085318;28;20036;-63
2022/06/20 06:03:59;;;;;;;12.10;3.83;;;13.90;99.90;;;;;;5084288;28;20446;-62
2022/06/20 06:06:32;;;;;;;13.18;3.55;;;15.30;99.90;;;;;;5074968;28;20504;-64
2022/06/20 06:09:11;;;;;;;13.68;3.47;;;14.00;99.90;;;;;;5077483;28;20151;-64
2022/06/20 06:11:48;;;;;;;13.13;3.22;;;14.00;99.90;;;;;;5086811;28;20035;-63
2022/06/20 06:14:34;;;;;;;11.85;3.60;;;14.10;99.90;;;;;;5083220;28;20028;-64
2022/06/20 06:17:11;;;;;;;10.75;3.13;;;14.20;99.90;;;;;;5084476;28;20062;-63
2022/06/20 06:19:48;;;;;;;14.30;3.75;;;14.30;99.90;;;;;;5074474;28;20512;-63
2022/06/20 06:22:27;;;;;;;15.48;3.60;;;14.40;99.90;;;;;;5082591;28;20016;-62
2022/06/20 06:24:58;;;;;;;13.52;3.47;;;14.60;99.90;;;;;;5088225;28;20036;-64
2022/06/20 06:27:26;;;;;;;12.85;3.45;;;14.50;99.90;;;;;;5084074;28;20123;-66
2022/06/20 06:30:42;;;;;;;14.45;3.47;;;14.70;99.90;;;;;;5093447;28;20051;-66
2022/06/20 06:33:40;;;;;;;14.95;3.45;;;14.60;99.90;;;;;;5059462;28;20051;-66
2022/06/20 06:36:30;;;;;;;14.95;3.00;;;14.80;99.90;;;;;;5081948;28;20105;-66
2022/06/20 06:39:14;;;;;;;12.25;2.97;;;14.80;99.90;;;;;;5080427;28;20491;-66
2022/06/20 06:41:45;;;;;;;14.88;3.33;;;15.00;99.90;;;;;;5080776;28;20024;-66
2022/06/20 06:44:39;;;;;;;11.13;2.90;;;15.00;99.90;;;;;;5074189;28;20399;-66
2022/06/20 06:47:12;;;;;;;12.77;3.35;;;15.10;99.90;;;;;;5079602;28;20099;-65
2022/06/20 06:49:45;;;;;;;11.90;3.22;;;15.20;99.90;;;;;;5085944;28;20074;-66
2022/06/20 06:52:13;;;;;;;11.05;3.17;;;14.90;99.90;;;;;;5083719;28;20031;-63
2022/06/20 06:54:42;;;;;;;15.18;2.92;;;15.00;99.90;;;;;;5083562;28;20051;-63
2022/06/20 06:57:22;;;;;;;13.07;3.47;;;15.10;99.90;;;;;;5083227;28;20028;-62
2022/06/20 07:00:04;;;;;;;16.25;5.50;;;14.90;99.90;;;;;;5074484;28;20406;-64
2022/06/20 07:02:35;;;;;;;13.80;2.88;;;15.00;99.90;;;;;;5080748;28;20036;-64
2022/06/20 07:05:04;;;;;;;9.48;2.70;;;15.10;99.90;;;;;;5077957;28;20024;-63
2022/06/20 07:07:41;;;;;;;14.90;2.90;;;15.50;99.90;;;;;;5080318;28;20103;-63
2022/06/20 07:10:21;;;;;;;11.10;2.58;;;15.40;99.90;;;;;;5083299;28;20047;-64
2022/06/20 07:12:51;;;;;;;11.82;2.83;;;15.20;99.90;;;;;;5087947;28;20120;-63
2022/06/20 07:15:23;;;;;;;11.95;2.83;;;15.00;99.90;;;;;;5085348;28;20024;-63
2022/06/20 07:18:02;;;;;;;12.75;2.65;;;15.30;99.90;;;;;;5085687;28;20031;-64
2022/06/20 07:20:34;;;;;;;10.77;2.45;;;15.50;99.90;;;;;;5077836;28;20016;-63
2022/06/20 07:23:02;;;;;;;15.30;3.17;;;15.40;99.90;;;;;;5085307;28;20024;-64
2022/06/20 07:25:35;;;;;;;10.15;2.38;;;15.50;99.90;;;;;;5076392;28;20027;-64
2022/06/20 07:28:21;;;;;;;11.03;2.67;;;15.50;99.90;;;;;;5080221;28;20032;-63
2022/06/20 07:31:00;;;;;;;11.23;2.55;;;15.80;99.90;;;;;;5077903;28;20424;-64
2022/06/20 07:33:39;;;;;;;15.85;2.70;;;16.00;99.90;;;;;;5081809;28;20058;-63
2022/06/20 07:36:09;;;;;;;12.23;3.20;;;16.00;99.90;;;;;;5080721;28;20032;-63
2022/06/20 07:38:45;;;;;;;10.38;2.80;;;16.00;99.90;;;;;;5077026;28;20480;-65
2022/06/20 07:41:32;;;;;;;11.88;2.78;;;16.00;99.90;;;;;;5084861;28;20023;-63
2022/06/20 07:43:58;;;;;;;8.35;2.70;;;16.10;99.90;;;;;;5074047;28;20499;-63
2022/06/20 07:46:37;;;;;;;11.43;3.05;;;16.10;99.90;;;;;;5076919;28;20149;-64
2022/06/20 07:49:09;;;;;;;9.55;2.97;;;16.20;99.90;;;;;;5079355;28;20024;-64
2022/06/20 07:51:41;;;;;;;11.43;3.70;;;17.30;99.90;;;;;;5077989;28;20494;-63
2022/06/20 07:54:20;;;;;;;8.73;3.28;;;16.40;99.90;;;;;;5074706;28;20089;-63
2022/06/20 07:56:50;;;;;;;7.35;3.20;;;16.20;99.90;;;;;;5078491;28;20024;-63
2022/06/20 07:59:37;;;;;;;9.48;3.45;;;16.10;99.90;;;;;;5076471;28;20116;-64
2022/06/20 08:02:30;;;;;;;11.25;2.70;;;16.20;99.90;;;;;;5078640;28;20091;-64
2022/06/20 08:04:58;;;;;;;4.63;2.03;;;16.20;99.90;;;;;;5070786;28;20128;-64
2022/06/20 08:07:52;;;;;;;8.27;1.83;;;16.40;99.90;;;;;;5082285;28;21239;-63
2022/06/20 08:10:32;;;;;;;4.53;1.75;;;16.60;99.90;;;;;;5077527;28;20122;-63
2022/06/20 08:13:22;;;;;;;8.32;1.75;;;16.30;99.90;;;;;;5083765;28;20551;-64
2022/06/20 08:15:57;;;;;;;4.57;1.40;;;16.10;99.90;;;;;;5076687;28;20028;-63
2022/06/20 08:18:23;;;;;;;7.95;1.90;;;16.10;99.90;;;;;;5078004;28;20047;-63
2022/06/20 08:21:07;;;;;;;4.93;1.40;;;16.30;99.90;;;;;;5082513;28;20052;-64
2022/06/20 08:24:11;;;;;;;7.50;1.70;;;16.50;99.90;;;;;;5080689;28;20427;-64
2022/06/20 08:26:47;;;;;;;4.90;1.30;;;16.80;99.90;;;;;;5066603;28;20147;-65
2022/06/20 08:29:19;;;;;;;8.10;1.80;;;16.90;99.90;;;;;;5080549;28;20438;-64
2022/06/20 08:31:49;;;;;;;4.57;1.10;;;17.20;99.90;;;;;;5082439;28;20034;-65
2022/06/20 08:34:17;;;;;;;3.85;1.25;;;17.40;99.90;;;;;;5083230;28;20058;-64
2022/06/20 08:36:58;;;;;;;6.00;1.20;;;17.60;99.90;;;;;;5079418;28;20035;-65
2022/06/20 08:39:30;;;;;;;7.10;1.50;;;17.60;99.90;;;;;;5076562;28;20028;-64
2022/06/20 08:42:11;;;;;;;4.90;1.40;;;17.50;99.90;;;;;;5097649;28;20062;-65
2022/06/20 08:45:04;;;;;;;5.70;1.30;;;17.10;99.90;;;;;;5083204;28;20023;-64
2022/06/20 08:47:37;;;;;;;5.97;1.93;;;17.40;99.90;;;;;;5075957;28;20035;-64
2022/06/20 08:50:13;;;;;;;4.15;1.20;;;17.70;99.90;;;;;;5079680;28;20512;-65
2022/06/20 08:53:10;;;;;;;7.93;1.20;;;17.90;99.90;;;;;;5083398;28;20055;-64
2022/06/20 08:56:09;;;;;;;5.55;1.25;;;17.50;99.90;;;;;;5072760;28;20112;-65
2022/06/20 08:58:54;;;;;;;12.05;4.20;;;17.60;99.90;;;;;;5067770;28;20021;-64
2022/06/20 09:01:29;;;;;;;5.95;1.52;;;17.60;99.90;;;;;;5069216;28;20032;-64
2022/06/20 09:04:13;;;;;;;6.65;1.70;;;17.30;99.90;;;;;;5084704;28;20024;-64
2022/06/20 09:06:52;;;;;;;5.50;1.67;;;17.20;99.90;;;;;;5086810;28;20062;-63
2022/06/20 09:09:39;;;;;;;4.93;1.55;;;17.40;99.90;;;;;;5082807;28;20016;-64
2022/06/20 09:12:31;;;;;;;5.40;1.73;;;17.40;99.90;;;;;;5089002;28;20476;-64
2022/06/20 09:15:15;;;;;;;5.10;1.33;;;17.40;99.90;;;;;;5074368;28;20074;-63
2022/06/20 09:17:59;;;;;;;9.35;1.45;;;17.80;99.90;;;;;;5073506;28;20049;-64
2022/06/20 09:20:29;;;;;;;3.78;1.50;;;17.80;99.90;;;;;;5084713;28;20438;-64
2022/06/20 09:23:03;;;;;;;6.35;1.58;;;17.80;99.90;;;;;;5084750;28;20031;-63
2022/06/20 09:25:31;;;;;;;4.55;1.50;;;17.60;99.90;;;;;;5082644;28;20023;-64
2022/06/20 09:28:20;;;;;;;7.00;1.80;;;17.90;99.90;;;;;;5084197;28;20024;-64
2022/06/20 09:31:06;;;;;;;9.65;1.95;;;18.00;99.90;;;;;;5078473;28;20040;-64
2022/06/20 09:33:45;;;;;;;8.25;1.95;;;17.90;99.90;;;;;;5079153;28;20021;-64
2022/06/20 09:36:13;;;;;;;5.47;1.70;;;18.30;99.90;;;;;;5092406;28;20719;-63
2022/06/20 09:39:07;;;;;;;5.30;1.70;;;18.60;99.90;;;;;;5081022;28;20016;-63
2022/06/20 09:41:43;;;;;;;9.07;4.53;;;18.60;99.90;;;;;;5085001;28;20081;-65
2022/06/20 09:44:38;;;;;;;5.85;1.58;;;18.50;99.90;;;;;;5079168;28;20031;-64
2022/06/20 09:47:15;;;;;;;6.53;1.90;;;18.00;99.90;;;;;;5082778;28;20475;-63
2022/06/20 09:49:40;;;;;;;4.53;1.60;;;17.70;99.90;;;;;;5088484;28;20471;-64
2022/06/20 09:52:25;;;;;;;4.75;1.60;;;18.00;99.90;;;;;;5079379;28;20072;-65
2022/06/20 09:55:13;;;;;;;6.47;1.80;;;18.40;99.90;;;;;;5091497;28;20656;-65
2022/06/20 09:57:51;;;;;;;6.50;1.95;;;18.80;99.90;;;;;;5082175;28;20438;-64
2022/06/20 10:00:26;;;;;;;8.23;1.95;;;19.20;99.90;;;;;;5081853;28;20605;-65
2022/06/20 10:03:07;;;;;;;6.85;1.77;;;19.10;99.90;;;;;;5083442;28;20016;-63
2022/06/20 10:05:42;;;;;;;8.25;2.10;;;19.10;99.90;;;;;;5081319;28;20100;-64
2022/06/20 10:08:11;;;;;;;5.47;1.73;;;19.00;99.90;;;;;;5086450;28;20394;-63
2022/06/20 10:10:39;;;;;;;5.88;1.83;;;18.70;99.90;;;;;;5082360;28;20476;-63
2022/06/20 10:13:33;;;;;;;6.00;1.55;;;18.50;99.90;;;;;;5086370;28;20029;-65
2022/06/20 10:16:23;;;;;;;7.13;1.80;;;18.70;99.90;;;;;;5078030;28;20531;-63
2022/06/20 10:19:12;;;;;;;11.60;2.30;;;18.60;99.90;;;;;;5087200;28;20537;-62
2022/06/20 10:21:50;;;;;;;8.63;1.80;;;18.70;99.90;;;;;;5077319;28;20081;-64
2022/06/20 10:24:42;;;;;;;6.20;1.80;;;18.70;99.90;;;;;;5086249;28;20039;-63
2022/06/20 10:27:33;;;;;;;5.45;1.90;;;18.70;99.90;;;;;;5094350;28;20300;-64
2022/06/20 10:30:13;;;;;;;7.00;1.80;;;18.90;99.90;;;;;;5076435;28;20031;-63
2022/06/20 10:32:42;;;;;;;7.13;2.08;;;19.30;99.90;;;;;;5082588;28;20078;-64
2022/06/20 10:35:28;;;;;;;6.32;1.80;;;19.70;99.90;;;;;;5076634;28;20393;-62
2022/06/20 10:38:02;;;;;;;8.23;2.00;;;19.30;99.90;;;;;;5079470;28;20070;-64
2022/06/20 10:40:52;;;;;;;6.05;1.67;;;19.40;99.90;;;;;;5083803;28;20032;-63
2022/06/20 10:43:23;;;;;;;6.88;1.88;;;19.30;99.90;;;;;;5077631;28;20028;-65
2022/06/20 10:46:10;;;;;;;5.82;1.80;;;19.70;99.90;;;;;;5083084;28;20066;-64
2022/06/20 10:48:54;;;;;;;4.57;1.65;;;19.80;99.90;;;;;;5070468;28;20637;-63
2022/06/20 10:51:34;;;;;;;;;;;19.40;99.90;;;;;;5078038;28;20020;-64
2022/06/20 10:54:18;;;;;;;5.35;1.88;;;19.50;99.90;;;;;;5077180;28;20473;-62
2022/06/20 10:56:47;;;;;;;6.32;1.77;;;19.60;99.90;;;;;;5081646;28;20025;-63
2022/06/20 10:59:36;;;;;;;5.30;2.05;;;19.50;99.90;;;;;;5080333;28;20040;-62
2022/06/20 11:02:18;;;;;;;9.15;2.10;;;19.20;99.90;;;;;;5071793;28;20112;-63
2022/06/20 11:04:47;;;;;;;5.07;2.22;;;;;;;;;;5078691;28;20044;-63
2022/06/20 11:07:38;;;;;;;5.22;2.00;;;19.70;99.90;;;;;;5083532;28;20098;-63
2022/06/20 11:10:09;;;;;;;6.65;1.80;;;19.90;99.90;;;;;;5084641;28;20016;-65
2022/06/20 11:12:40;;;;;;;7.40;2.20;;;19.60;99.90;;;;;;5080083;28;20023;-63
2022/06/20 11:15:14;;;;;;;6.25;1.90;;;20.00;99.90;;;;;;5075434;28;20747;-64
2022/06/20 11:18:00;;;;;;;8.95;2.15;;;19.90;99.90;;;;;;5083394;28;20028;-64
2022/06/20 11:20:34;;;;;;;5.40;2.17;;;19.70;99.90;;;;;;5072823;28;20021;-63
2022/06/20 11:23:31;;;;;;;6.72;2.00;;;19.90;99.90;;;;;;5087496;28;20016;-64
2022/06/20 11:26:03;;;;;;;6.80;1.90;;;20.10;99.90;;;;;;5073263;28;20031;-64
2022/06/20 11:28:56;;;;;;;4.45;1.80;;;20.00;99.90;;;;;;5090127;28;20107;-64
2022/06/20 11:31:30;;;;;;;5.90;1.77;;;20.40;99.90;;;;;;5086321;28;20031;-64
2022/06/20 11:34:04;;;;;;;5.07;1.65;;;20.60;99.90;;;;;;5077626;28;20312;-63
2022/06/20 11:36:43;;;;;;;3.38;1.50;;;20.70;99.90;;;;;;5085226;28;20012;-62
2022/06/20 11:39:30;;;;;;;4.50;1.60;;;19.90;99.90;;;;;;5075333;28;20024;-63
2022/06/20 11:42:08;;;;;;;5.75;2.05;;;19.90;99.90;;;;;;5084678;28;20023;-62
2022/06/20 11:44:44;;;;;;;4.75;1.85;;;20.30;99.90;;;;;;5079408;28;20020;-62
2022/06/20 11:47:22;;;;;;;6.45;2.80;;;20.30;99.90;;;;;;5080042;28;20458;-62
2022/06/20 11:50:07;;;;;;;6.80;2.05;;;;;;;;;;5083663;28;20455;-63
2022/06/20 11:52:43;;;;;;;7.82;2.10;;;;;;;;;;5079510;28;20028;-62
2022/06/20 11:55:34;;;;;;;5.47;2.20;;;20.90;99.90;;;;;;5074342;28;20546;-62
2022/06/20 11:58:08;;;;;;;6.20;2.20;;;20.80;99.90;;;;;;5074972;28;20032;-64
2022/06/20 12:00:51;;;;;;;4.70;2.03;;;20.60;99.90;;;;;;5080062;28;20028;-64
2022/06/20 12:03:37;;;;;;;5.28;2.30;;;20.80;99.90;;;;;;5078364;28;20019;-64
2022/06/20 12:06:35;;;;;;;5.70;2.08;;;20.90;99.90;;;;;;5083594;28;20026;-63
2022/06/20 12:09:20;;;;;;;3.45;1.70;;;21.10;99.90;;;;;;5080349;28;20040;-64
2022/06/20 12:12:13;;;;;;;5.78;2.10;;;20.90;99.90;;;;;;5085227;28;20028;-62
2022/06/20 12:15:00;;;;;;;3.70;1.90;;;20.80;99.90;;;;;;5077770;28;20032;-63
2022/06/20 12:17:34;;;;;;;6.20;2.15;;;20.30;99.90;;;;;;5079548;28;20020;-63
2022/06/20 12:23:21;;;;;;;5.15;2.10;;;19.70;99.90;;;;;;5077433;28;20026;-64
2022/06/20 12:26:04;;;;;;;5.82;2.20;;;20.00;99.90;;;;;;5095057;27;20024;-64
2022/06/20 12:28:42;;;;;;;6.80;2.72;;;20.50;99.90;;;;;;5076582;28;20024;-64
2022/06/20 12:31:07;;;;;;;5.20;2.42;;;20.70;99.90;;;;;;5080259;28;20128;-63
2022/06/20 12:33:35;;;;;;;5.50;2.00;;;20.90;99.90;;;;;;5081866;28;20107;-63
2022/06/20 12:36:31;;;;;;;5.38;2.38;;;21.10;99.90;;;;;;5080634;28;20082;-63
2022/06/20 12:39:00;;;;;;;7.78;2.42;;;20.80;99.90;;;;;;5077151;28;20508;-64
2022/06/20 12:41:31;;;;;;;4.78;2.03;;;20.90;99.90;;;;;;5087893;28;20015;-64
2022/06/20 12:44:30;;;;;;;7.05;2.45;;;21.00;99.90;;;;;;5080287;28;20404;-64
2022/06/20 12:47:32;;;;;;;9.23;2.53;;;20.80;99.90;;;;;;5074081;28;20040;-64
2022/06/20 12:50:09;;;;;;;7.18;2.75;;;20.50;99.90;;;;;;5074636;28;20034;-62
2022/06/20 12:53:17;;;;;;;5.60;2.40;;;20.50;99.90;;;;;;5083880;28;20051;-63
2022/06/20 12:56:12;;;;;;;5.80;2.83;;;20.70;99.90;;;;;;5104040;28;20035;-64
2022/06/20 12:59:24;;;;;;;7.45;2.30;;;20.60;99.90;;;;;;5072842;28;20020;-64
2022/06/20 13:02:08;;;;;;;7.03;2.38;;;20.60;99.90;;;;;;5069126;28;20079;-64
2022/06/20 13:04:52;;;;;;;6.35;2.40;;;21.20;99.90;;;;;;5087779;28;20020;-63
2022/06/20 13:07:31;;;;;;;6.60;2.35;;;21.30;99.90;;;;;;5074725;28;20025;-64
2022/06/20 13:10:19;;;;;;;8.00;2.60;;;21.40;99.90;;;;;;5081921;28;20109;-63
2022/06/20 13:12:53;;;;;;;6.28;2.15;;;21.50;99.90;;;;;;5076090;28;20046;-64
2022/06/20 13:15:27;;;;;;;6.60;2.50;;;21.00;99.90;;;;;;5074050;28;20099;-64
2022/06/20 13:18:21;;;;;;;7.43;2.92;;;20.50;99.90;;;;;;5081238;28;20015;-64
2022/06/20 13:21:10;;;;;;;10.02;2.75;;;20.50;99.90;;;;;;5074967;28;20480;-64
2022/06/20 13:24:00;;;;;;;6.68;2.30;;;20.70;99.90;;;;;;5084553;28;20106;-63
2022/06/20 13:26:44;;;;;;;6.47;2.50;;;20.90;99.90;;;;;;5077844;28;20093;-63
2022/06/20 13:29:31;;;;;;;7.57;2.45;;;21.20;99.90;;;;;;5083528;28;20035;-63
2022/06/20 13:32:35;;;;;;;9.23;2.80;;;21.10;99.90;;;;;;5080897;28;20513;-64
2022/06/20 13:35:23;;;;;;;5.70;2.13;;;21.00;99.90;;;;;;5081350;28;20626;-64
2022/06/20 13:38:04;;;;;;;8.85;2.78;;;20.90;99.90;;;;;;5089426;28;20032;-64
2022/06/20 13:40:40;;;;;;;10.30;2.75;;;21.00;99.90;;;;;;5075560;28;20040;-63
2022/06/20 13:43:34;;;;;;;8.07;2.40;;;21.00;99.90;;;;;;5079984;28;20027;-63
2022/06/20 13:46:29;;;;;;;5.70;2.13;;;20.80;99.90;;;;;;5073568;28;20240;-65
2022/06/20 13:49:13;;;;;;;9.65;2.63;;;20.90;99.90;;;;;;5078238;28;20032;-64
2022/06/20 13:52:02;;;;;;;5.47;2.38;;;21.30;99.90;;;;;;5079125;28;20081;-63